sensor_id;sensor_type;location;lat;lon;timestamp;P1;P2;P0
35654;PMS1003;21773;50.010;19.972;2022-12-18T00:00:59;46.20;38.60;28.00
35654;PMS1003;21773;50.010;19.972;2022-12-18T00:04:05;48.00;39.00;28.00
35654;PMS1003;21773;50.010;19.972;2022-12-18T00:07:11;45.60;36.60;27.00
35654;PMS1003;21773;50.010;19.972;2022-12-18T00:10:14;53.40;41.40;31.00
35654;PMS1003;21773;50.010;19.972;2022-12-18T00:13:18;48.00;35.00;27.00
35654;PMS1003;21773;50.010;19.972;2022-12-18T00:16:22;43.00;35.00;27.00
35654;PMS1003;21773;50.010;19.972;2022-12-18T00:19:27;47.00;37.40;28.00
35654;PMS1003;21773;50.010;19.972;2022-12-18T00:22:31;51.20;40.00;29.00
35654;PMS1003;21773;50.010;19.972;2022-12-18T00:25:35;44.40;35.40;27.00
35654;PMS1003;21773;50.010;19.972;2022-12-18T00:28:39;47.20;36.00;27.00
35654;PMS1003;21773;50.010;19.972;2022-12-18T00:31:42;46.40;36.00;27.20
35654;PMS1003;21773;50.010;19.972;2022-12-18T00:34:46;45.00;35.00;27.00
35654;PMS1003;21773;50.010;19.972;2022-12-18T00:37:51;45.00;35.00;25.60
35654;PMS1003;21773;50.010;19.972;2022-12-18T00:40:54;49.00;39.40;29.40
35654;PMS1003;21773;50.010;19.972;2022-12-18T00:43:58;49.60;38.40;28.00
35654;PMS1003;21773;50.010;19.972;2022-12-18T00:47:00;47.00;36.40;27.20
35654;PMS1003;21773;50.010;19.972;2022-12-18T00:50:04;46.00;36.00;26.60
35654;PMS1003;21773;50.010;19.972;2022-12-18T00:53:09;47.00;37.20;28.00
35654;PMS1003;21773;50.010;19.972;2022-12-18T00:56:12;46.25;36.00;27.00
35654;PMS1003;21773;50.010;19.972;2022-12-18T00:59:16;47.00;37.60;27.60
35654;PMS1003;21773;50.010;19.972;2022-12-18T01:02:21;42.50;34.25;26.00
35654;PMS1003;21773;50.010;19.972;2022-12-18T01:05:24;47.40;36.00;26.40
35654;PMS1003;21773;50.010;19.972;2022-12-18T01:08:29;49.00;38.00;28.00
35654;PMS1003;21773;50.010;19.972;2022-12-18T01:11:32;47.00;37.75;28.00
35654;PMS1003;21773;50.010;19.972;2022-12-18T01:14:38;48.00;39.00;28.40
35654;PMS1003;21773;50.010;19.972;2022-12-18T01:17:41;45.00;38.00;28.00
35654;PMS1003;21773;50.010;19.972;2022-12-18T01:20:45;43.75;35.00;26.25
35654;PMS1003;21773;50.010;19.972;2022-12-18T01:23:52;44.75;34.75;26.25
35654;PMS1003;21773;50.010;19.972;2022-12-18T01:26:57;51.60;40.00;29.00
35654;PMS1003;21773;50.010;19.972;2022-12-18T01:30:01;50.80;38.80;28.80
35654;PMS1003;21773;50.010;19.972;2022-12-18T01:33:05;48.60;39.80;30.60
35654;PMS1003;21773;50.010;19.972;2022-12-18T01:36:14;46.60;36.60;27.00
35654;PMS1003;21773;50.010;19.972;2022-12-18T01:39:19;48.00;38.00;28.00
35654;PMS1003;21773;50.010;19.972;2022-12-18T01:42:23;47.00;38.00;28.00
35654;PMS1003;21773;50.010;19.972;2022-12-18T01:45:28;46.75;35.75;27.00
35654;PMS1003;21773;50.010;19.972;2022-12-18T01:48:33;45.00;35.80;26.40
35654;PMS1003;21773;50.010;19.972;2022-12-18T01:51:38;45.00;36.00;27.00
35654;PMS1003;21773;50.010;19.972;2022-12-18T01:54:42;46.20;35.00;26.00
35654;PMS1003;21773;50.010;19.972;2022-12-18T01:57:47;47.00;36.00;27.00
35654;PMS1003;21773;50.010;19.972;2022-12-18T02:00:52;46.50;35.50;26.50
35654;PMS1003;21773;50.010;19.972;2022-12-18T02:04:10;42.20;35.00;26.40
35654;PMS1003;21773;50.010;19.972;2022-12-18T02:07:24;46.60;36.00;26.60
35654;PMS1003;21773;50.010;19.972;2022-12-18T02:10:38;44.60;35.40;26.60
35654;PMS1003;21773;50.010;19.972;2022-12-18T02:13:51;42.80;35.00;26.40
35654;PMS1003;21773;50.010;19.972;2022-12-18T02:17:00;47.00;37.75;28.00
35654;PMS1003;21773;50.010;19.972;2022-12-18T02:20:12;43.80;33.00;24.20
35654;PMS1003;21773;50.010;19.972;2022-12-18T02:23:23;49.00;37.75;28.75
35654;PMS1003;21773;50.010;19.972;2022-12-18T02:26:44;47.00;38.00;28.00
35654;PMS1003;21773;50.010;19.972;2022-12-18T02:29:55;49.40;38.40;28.00
35654;PMS1003;21773;50.010;19.972;2022-12-18T02:33:04;48.00;37.00;27.00
35654;PMS1003;21773;50.010;19.972;2022-12-18T02:36:09;46.00;35.33;26.33
35654;PMS1003;21773;50.010;19.972;2022-12-18T02:39:17;45.00;36.00;28.00
35654;PMS1003;21773;50.010;19.972;2022-12-18T02:42:33;44.33;34.33;25.33
35654;PMS1003;21773;50.010;19.972;2022-12-18T02:45:46;44.00;35.00;26.50
35654;PMS1003;21773;50.010;19.972;2022-12-18T02:48:50;43.60;36.00;26.80
35654;PMS1003;21773;50.010;19.972;2022-12-18T02:52:02;45.00;34.00;26.00
35654;PMS1003;21773;50.010;19.972;2022-12-18T02:55:17;46.80;36.20;26.80
35654;PMS1003;21773;50.010;19.972;2022-12-18T02:58:37;49.80;40.00;28.80
35654;PMS1003;21773;50.010;19.972;2022-12-18T03:02:01;46.80;36.00;28.00
35654;PMS1003;21773;50.010;19.972;2022-12-18T03:05:11;44.00;35.00;26.67
35654;PMS1003;21773;50.010;19.972;2022-12-18T03:08:20;45.00;35.00;27.00
35654;PMS1003;21773;50.010;19.972;2022-12-18T03:11:28;49.00;38.00;28.00
35654;PMS1003;21773;50.010;19.972;2022-12-18T03:14:57;41.80;34.00;23.80
35654;PMS1003;21773;50.010;19.972;2022-12-18T03:18:06;43.80;35.00;26.40
35654;PMS1003;21773;50.010;19.972;2022-12-18T03:21:15;45.75;36.00;27.00
35654;PMS1003;21773;50.010;19.972;2022-12-18T03:24:22;46.60;37.00;27.00
35654;PMS1003;21773;50.010;19.972;2022-12-18T03:27:29;45.00;36.25;26.25
35654;PMS1003;21773;50.010;19.972;2022-12-18T03:30:43;41.00;33.25;26.00
35654;PMS1003;21773;50.010;19.972;2022-12-18T03:33:51;42.75;35.00;26.00
35654;PMS1003;21773;50.010;19.972;2022-12-18T03:37:01;44.75;33.00;26.00
35654;PMS1003;21773;50.010;19.972;2022-12-18T03:40:06;37.50;32.75;24.00
35654;PMS1003;21773;50.010;19.972;2022-12-18T03:43:14;40.80;32.00;23.40
35654;PMS1003;21773;50.010;19.972;2022-12-18T03:46:26;45.80;36.60;28.00
35654;PMS1003;21773;50.010;19.972;2022-12-18T03:49:34;45.67;35.33;27.33
35654;PMS1003;21773;50.010;19.972;2022-12-18T03:52:43;40.20;34.00;26.80
35654;PMS1003;21773;50.010;19.972;2022-12-18T03:55:52;46.00;36.25;27.25
35654;PMS1003;21773;50.010;19.972;2022-12-18T03:58:58;42.00;35.00;26.80
35654;PMS1003;21773;50.010;19.972;2022-12-18T04:02:06;45.00;36.00;26.60
35654;PMS1003;21773;50.010;19.972;2022-12-18T04:05:12;46.00;36.00;26.50
35654;PMS1003;21773;50.010;19.972;2022-12-18T04:08:18;44.25;33.75;25.25
35654;PMS1003;21773;50.010;19.972;2022-12-18T04:11:33;44.00;35.40;27.80
35654;PMS1003;21773;50.010;19.972;2022-12-18T04:14:38;41.25;35.00;27.00
35654;PMS1003;21773;50.010;19.972;2022-12-18T04:17:46;41.40;33.00;24.00
35654;PMS1003;21773;50.010;19.972;2022-12-18T04:20:55;47.00;36.00;27.00
35654;PMS1003;21773;50.010;19.972;2022-12-18T04:23:59;42.50;33.50;24.50
35654;PMS1003;21773;50.010;19.972;2022-12-18T04:27:03;40.00;33.00;26.00
35654;PMS1003;21773;50.010;19.972;2022-12-18T04:30:13;41.25;33.00;24.00
35654;PMS1003;21773;50.010;19.972;2022-12-18T04:33:18;46.75;37.25;28.00
35654;PMS1003;21773;50.010;19.972;2022-12-18T04:36:26;42.80;33.40;24.80
35654;PMS1003;21773;50.010;19.972;2022-12-18T04:39:29;43.40;36.00;27.60
35654;PMS1003;21773;50.010;19.972;2022-12-18T04:42:39;43.50;35.00;26.00
35654;PMS1003;21773;50.010;19.972;2022-12-18T04:45:42;47.40;38.00;28.00
35654;PMS1003;21773;50.010;19.972;2022-12-18T04:48:47;38.20;33.60;25.60
35654;PMS1003;21773;50.010;19.972;2022-12-18T04:51:50;45.80;35.60;26.00
35654;PMS1003;21773;50.010;19.972;2022-12-18T04:54:54;41.60;34.60;26.00
35654;PMS1003;21773;50.010;19.972;2022-12-18T04:57:58;45.00;35.00;27.00
35654;PMS1003;21773;50.010;19.972;2022-12-18T05:01:01;44.40;35.00;26.40
35654;PMS1003;21773;50.010;19.972;2022-12-18T05:04:06;47.00;37.00;28.00
35654;PMS1003;21773;50.010;19.972;2022-12-18T05:07:10;40.50;33.00;25.00
35654;PMS1003;21773;50.010;19.972;2022-12-18T05:10:13;43.80;33.00;25.40
35654;PMS1003;21773;50.010;19.972;2022-12-18T05:13:17;45.00;36.00;26.60
35654;PMS1003;21773;50.010;19.972;2022-12-18T05:16:21;41.60;34.80;26.40
35654;PMS1003;21773;50.010;19.972;2022-12-18T05:19:26;38.80;32.20;23.80
35654;PMS1003;21773;50.010;19.972;2022-12-18T05:22:29;40.80;35.00;26.40
35654;PMS1003;21773;50.010;19.972;2022-12-18T05:25:33;33.80;30.20;23.20
35654;PMS1003;21773;50.010;19.972;2022-12-18T05:28:36;43.00;33.00;24.00
35654;PMS1003;21773;50.010;19.972;2022-12-18T05:31:40;41.50;33.50;25.50
35654;PMS1003;21773;50.010;19.972;2022-12-18T05:34:45;44.50;35.75;26.50
35654;PMS1003;21773;50.010;19.972;2022-12-18T05:37:48;42.00;34.00;26.00
35654;PMS1003;21773;50.010;19.972;2022-12-18T05:40:52;41.40;34.00;24.40
35654;PMS1003;21773;50.010;19.972;2022-12-18T05:43:55;44.80;33.80;25.60
35654;PMS1003;21773;50.010;19.972;2022-12-18T05:46:59;42.40;32.40;23.60
35654;PMS1003;21773;50.010;19.972;2022-12-18T05:50:04;41.00;33.00;24.60
35654;PMS1003;21773;50.010;19.972;2022-12-18T05:53:09;44.60;34.00;24.40
35654;PMS1003;21773;50.010;19.972;2022-12-18T05:56:13;37.40;33.00;24.80
35654;PMS1003;21773;50.010;19.972;2022-12-18T05:59:18;43.40;36.00;27.00
35654;PMS1003;21773;50.010;19.972;2022-12-18T06:02:21;40.20;33.20;24.80
35654;PMS1003;21773;50.010;19.972;2022-12-18T06:05:26;40.00;33.75;25.75
35654;PMS1003;21773;50.010;19.972;2022-12-18T06:08:30;38.00;32.40;23.40
35654;PMS1003;21773;50.010;19.972;2022-12-18T06:11:34;41.60;33.00;25.20
35654;PMS1003;21773;50.010;19.972;2022-12-18T06:14:39;40.80;32.60;25.60
35654;PMS1003;21773;50.010;19.972;2022-12-18T06:17:42;45.00;37.00;28.00
35654;PMS1003;21773;50.010;19.972;2022-12-18T06:20:55;43.20;33.00;24.80
35654;PMS1003;21773;50.010;19.972;2022-12-18T06:23:59;42.80;35.60;27.40
35654;PMS1003;21773;50.010;19.972;2022-12-18T06:27:03;43.60;33.20;25.00
35654;PMS1003;21773;50.010;19.972;2022-12-18T06:30:07;40.60;33.20;25.20
35654;PMS1003;21773;50.010;19.972;2022-12-18T06:33:11;45.00;35.50;27.00
35654;PMS1003;21773;50.010;19.972;2022-12-18T06:36:16;40.00;34.00;26.20
35654;PMS1003;21773;50.010;19.972;2022-12-18T06:39:20;43.20;33.20;26.00
35654;PMS1003;21773;50.010;19.972;2022-12-18T06:42:23;42.20;35.00;26.00
35654;PMS1003;21773;50.010;19.972;2022-12-18T06:45:26;44.00;35.00;26.00
35654;PMS1003;21773;50.010;19.972;2022-12-18T06:48:31;45.60;35.00;28.00
35654;PMS1003;21773;50.010;19.972;2022-12-18T06:51:37;47.00;35.00;26.60
35654;PMS1003;21773;50.010;19.972;2022-12-18T06:54:40;39.00;32.25;24.75
35654;PMS1003;21773;50.010;19.972;2022-12-18T06:57:44;40.40;34.00;26.00
35654;PMS1003;21773;50.010;19.972;2022-12-18T07:00:47;45.00;34.25;24.00
35654;PMS1003;21773;50.010;19.972;2022-12-18T07:03:51;45.00;36.00;27.00
35654;PMS1003;21773;50.010;19.972;2022-12-18T07:06:57;44.75;36.00;27.50
35654;PMS1003;21773;50.010;19.972;2022-12-18T07:10:01;43.80;35.00;26.00
35654;PMS1003;21773;50.010;19.972;2022-12-18T07:13:05;46.80;35.80;27.40
35654;PMS1003;21773;50.010;19.972;2022-12-18T07:16:09;43.00;35.00;26.00
35654;PMS1003;21773;50.010;19.972;2022-12-18T07:19:23;45.60;36.20;27.00
35654;PMS1003;21773;50.010;19.972;2022-12-18T07:22:27;47.40;36.80;27.80
35654;PMS1003;21773;50.010;19.972;2022-12-18T07:25:33;49.00;37.00;27.00
35654;PMS1003;21773;50.010;19.972;2022-12-18T07:28:37;50.00;36.60;27.60
35654;PMS1003;21773;50.010;19.972;2022-12-18T07:31:41;47.40;38.60;28.00
35654;PMS1003;21773;50.010;19.972;2022-12-18T07:34:45;46.20;35.60;26.60
35654;PMS1003;21773;50.010;19.972;2022-12-18T07:37:49;43.75;35.00;26.00
35654;PMS1003;21773;50.010;19.972;2022-12-18T07:40:53;46.20;35.60;27.00
35654;PMS1003;21773;50.010;19.972;2022-12-18T07:43:56;45.00;36.00;27.00
35654;PMS1003;21773;50.010;19.972;2022-12-18T07:46:59;48.75;37.50;28.00
35654;PMS1003;21773;50.010;19.972;2022-12-18T07:50:06;48.40;38.00;28.00
35654;PMS1003;21773;50.010;19.972;2022-12-18T07:53:11;46.80;37.00;27.00
35654;PMS1003;21773;50.010;19.972;2022-12-18T07:56:16;51.00;38.00;28.00
35654;PMS1003;21773;50.010;19.972;2022-12-18T07:59:28;45.00;36.60;27.00
35654;PMS1003;21773;50.010;19.972;2022-12-18T08:02:32;45.75;35.00;27.00
35654;PMS1003;21773;50.010;19.972;2022-12-18T08:05:36;50.80;38.80;29.00
35654;PMS1003;21773;50.010;19.972;2022-12-18T08:08:40;49.40;37.80;28.40
35654;PMS1003;21773;50.010;19.972;2022-12-18T08:11:44;49.00;38.00;27.50
35654;PMS1003;21773;50.010;19.972;2022-12-18T08:14:47;51.40;40.00;29.40
35654;PMS1003;21773;50.010;19.972;2022-12-18T08:17:51;49.40;38.60;28.40
35654;PMS1003;21773;50.010;19.972;2022-12-18T08:20:54;43.80;34.40;25.40
35654;PMS1003;21773;50.010;19.972;2022-12-18T08:24:00;48.40;37.40;27.00
35654;PMS1003;21773;50.010;19.972;2022-12-18T08:27:04;46.40;36.60;27.00
35654;PMS1003;21773;50.010;19.972;2022-12-18T08:30:27;45.50;36.50;27.75
35654;PMS1003;21773;50.010;19.972;2022-12-18T08:33:31;46.80;37.80;28.00
35654;PMS1003;21773;50.010;19.972;2022-12-18T08:36:35;47.00;36.40;27.40
35654;PMS1003;21773;50.010;19.972;2022-12-18T08:39:39;48.60;37.00;27.00
35654;PMS1003;21773;50.010;19.972;2022-12-18T08:42:43;48.60;39.00;29.00
35654;PMS1003;21773;50.010;19.972;2022-12-18T08:46:04;43.75;35.00;26.75
35654;PMS1003;21773;50.010;19.972;2022-12-18T08:49:08;45.75;36.50;26.00
35654;PMS1003;21773;50.010;19.972;2022-12-18T08:52:12;46.75;35.25;26.25
35654;PMS1003;21773;50.010;19.972;2022-12-18T08:55:17;46.00;36.20;27.20
35654;PMS1003;21773;50.010;19.972;2022-12-18T08:58:22;44.00;35.00;26.00
35654;PMS1003;21773;50.010;19.972;2022-12-18T09:01:25;47.00;36.60;27.40
35654;PMS1003;21773;50.010;19.972;2022-12-18T09:04:29;46.20;36.00;27.00
35654;PMS1003;21773;50.010;19.972;2022-12-18T09:07:32;47.00;36.00;26.60
35654;PMS1003;21773;50.010;19.972;2022-12-18T09:10:42;36.20;31.60;23.00
35654;PMS1003;21773;50.010;19.972;2022-12-18T09:13:46;47.00;36.00;27.00
35654;PMS1003;21773;50.010;19.972;2022-12-18T09:16:49;45.00;35.00;26.00
35654;PMS1003;21773;50.010;19.972;2022-12-18T09:19:53;45.00;35.00;26.00
35654;PMS1003;21773;50.010;19.972;2022-12-18T09:22:56;43.00;35.00;27.00
35654;PMS1003;21773;50.010;19.972;2022-12-18T09:26:01;46.50;36.75;28.00
35654;PMS1003;21773;50.010;19.972;2022-12-18T09:29:04;45.75;36.50;27.75
35654;PMS1003;21773;50.010;19.972;2022-12-18T09:32:09;41.60;33.00;24.20
35654;PMS1003;21773;50.010;19.972;2022-12-18T09:35:16;40.40;33.00;24.40
35654;PMS1003;21773;50.010;19.972;2022-12-18T09:38:20;38.00;32.00;23.00
35654;PMS1003;21773;50.010;19.972;2022-12-18T09:41:37;42.50;33.00;24.00
35654;PMS1003;21773;50.010;19.972;2022-12-18T09:44:46;44.00;35.60;26.00
35654;PMS1003;21773;50.010;19.972;2022-12-18T09:47:55;43.20;35.40;26.60
35654;PMS1003;21773;50.010;19.972;2022-12-18T09:51:01;37.60;33.00;23.20
35654;PMS1003;21773;50.010;19.972;2022-12-18T09:54:11;35.50;31.50;23.00
35654;PMS1003;21773;50.010;19.972;2022-12-18T09:57:21;47.00;35.00;26.00
35654;PMS1003;21773;50.010;19.972;2022-12-18T10:00:27;45.20;35.00;26.00
35654;PMS1003;21773;50.010;19.972;2022-12-18T10:03:31;48.40;36.20;26.20
35654;PMS1003;21773;50.010;19.972;2022-12-18T10:06:35;45.00;37.00;28.00
35654;PMS1003;21773;50.010;19.972;2022-12-18T10:09:46;45.75;35.75;25.75
35654;PMS1003;21773;50.010;19.972;2022-12-18T10:13:04;44.80;35.00;26.60
35654;PMS1003;21773;50.010;19.972;2022-12-18T10:16:17;41.00;32.00;24.00
35654;PMS1003;21773;50.010;19.972;2022-12-18T10:19:36;40.40;33.00;24.00
35654;PMS1003;21773;50.010;19.972;2022-12-18T10:22:53;43.40;31.40;23.00
35654;PMS1003;21773;50.010;19.972;2022-12-18T10:26:02;43.60;32.60;24.00
35654;PMS1003;21773;50.010;19.972;2022-12-18T10:29:09;37.20;32.00;24.00
35654;PMS1003;21773;50.010;19.972;2022-12-18T10:32:16;41.00;32.75;23.00
35654;PMS1003;21773;50.010;19.972;2022-12-18T10:35:22;38.20;31.80;22.80
35654;PMS1003;21773;50.010;19.972;2022-12-18T10:38:28;41.40;33.40;24.00
35654;PMS1003;21773;50.010;19.972;2022-12-18T10:41:33;36.20;30.00;22.00
35654;PMS1003;21773;50.010;19.972;2022-12-18T10:44:38;37.40;32.00;23.00
35654;PMS1003;21773;50.010;19.972;2022-12-18T10:47:42;37.40;32.00;22.80
35654;PMS1003;21773;50.010;19.972;2022-12-18T10:50:48;35.00;31.00;23.00
35654;PMS1003;21773;50.010;19.972;2022-12-18T10:54:14;38.00;32.00;23.00
35654;PMS1003;21773;50.010;19.972;2022-12-18T10:57:29;43.00;33.00;24.00
35654;PMS1003;21773;50.010;19.972;2022-12-18T11:00:37;36.00;32.00;23.00
35654;PMS1003;21773;50.010;19.972;2022-12-18T11:03:41;32.00;27.40;21.00
35654;PMS1003;21773;50.010;19.972;2022-12-18T11:06:53;34.60;30.00;23.00
35654;PMS1003;21773;50.010;19.972;2022-12-18T11:10:01;30.20;28.60;22.00
35654;PMS1003;21773;50.010;19.972;2022-12-18T11:13:09;35.25;30.00;21.75
35654;PMS1003;21773;50.010;19.972;2022-12-18T11:16:21;39.00;32.00;23.00
35654;PMS1003;21773;50.010;19.972;2022-12-18T11:19:30;30.00;25.40;18.80
35654;PMS1003;21773;50.010;19.972;2022-12-18T11:22:36;38.00;30.00;22.00
35654;PMS1003;21773;50.010;19.972;2022-12-18T11:25:40;36.60;31.60;23.00
35654;PMS1003;21773;50.010;19.972;2022-12-18T11:29:08;36.00;31.80;23.00
35654;PMS1003;21773;50.010;19.972;2022-12-18T11:32:27;37.00;31.00;23.00
35654;PMS1003;21773;50.010;19.972;2022-12-18T11:35:40;31.67;27.67;20.00
35654;PMS1003;21773;50.010;19.972;2022-12-18T11:38:48;29.00;25.00;20.00
35654;PMS1003;21773;50.010;19.972;2022-12-18T11:41:57;32.75;28.00;20.50
35654;PMS1003;21773;50.010;19.972;2022-12-18T11:45:23;31.00;28.40;21.00
35654;PMS1003;21773;50.010;19.972;2022-12-18T11:48:32;28.80;25.20;20.00
35654;PMS1003;21773;50.010;19.972;2022-12-18T11:51:41;32.40;27.20;20.20
35654;PMS1003;21773;50.010;19.972;2022-12-18T11:54:52;34.00;28.80;21.80
35654;PMS1003;21773;50.010;19.972;2022-12-18T11:57:59;31.60;29.20;22.00
35654;PMS1003;21773;50.010;19.972;2022-12-18T12:01:20;31.40;26.00;20.00
35654;PMS1003;21773;50.010;19.972;2022-12-18T12:04:48;32.00;28.00;21.00
35654;PMS1003;21773;50.010;19.972;2022-12-18T12:08:06;31.50;28.00;21.50
35654;PMS1003;21773;50.010;19.972;2022-12-18T12:11:18;31.60;27.00;20.00
35654;PMS1003;21773;50.010;19.972;2022-12-18T12:14:33;33.75;29.75;21.00
35654;PMS1003;21773;50.010;19.972;2022-12-18T12:17:50;27.00;23.00;18.50
35654;PMS1003;21773;50.010;19.972;2022-12-18T12:21:03;33.00;27.60;20.00
35654;PMS1003;21773;50.010;19.972;2022-12-18T12:24:18;31.00;26.00;20.00
35654;PMS1003;21773;50.010;19.972;2022-12-18T12:27:35;31.00;28.40;21.00
35654;PMS1003;21773;50.010;19.972;2022-12-18T12:30:52;33.00;29.00;21.00
35654;PMS1003;21773;50.010;19.972;2022-12-18T12:34:06;35.25;29.75;22.00
35654;PMS1003;21773;50.010;19.972;2022-12-18T12:37:22;32.00;29.00;21.00
35654;PMS1003;21773;50.010;19.972;2022-12-18T12:40:37;31.20;29.80;22.00
35654;PMS1003;21773;50.010;19.972;2022-12-18T12:44:01;32.00;27.40;21.00
35654;PMS1003;21773;50.010;19.972;2022-12-18T12:47:10;38.00;30.00;23.00
35654;PMS1003;21773;50.010;19.972;2022-12-18T12:50:19;35.33;30.00;22.00
35654;PMS1003;21773;50.010;19.972;2022-12-18T12:53:27;32.60;30.00;22.60
35654;PMS1003;21773;50.010;19.972;2022-12-18T12:56:36;30.00;26.00;20.00
35654;PMS1003;21773;50.010;19.972;2022-12-18T12:59:47;30.75;26.75;20.25
35654;PMS1003;21773;50.010;19.972;2022-12-18T13:03:01;24.00;20.00;16.00
35654;PMS1003;21773;50.010;19.972;2022-12-18T13:06:12;31.60;27.00;21.00
35654;PMS1003;21773;50.010;19.972;2022-12-18T13:09:24;33.00;30.00;22.00
35654;PMS1003;21773;50.010;19.972;2022-12-18T13:12:35;30.00;27.00;20.75
35654;PMS1003;21773;50.010;19.972;2022-12-18T13:16:03;34.00;28.50;21.50
35654;PMS1003;21773;50.010;19.972;2022-12-18T13:19:18;37.33;29.33;21.67
35654;PMS1003;21773;50.010;19.972;2022-12-18T13:22:28;31.40;27.00;21.00
35654;PMS1003;21773;50.010;19.972;2022-12-18T13:25:36;25.80;21.20;19.00
35654;PMS1003;21773;50.010;19.972;2022-12-18T13:28:50;32.00;28.20;21.20
35654;PMS1003;21773;50.010;19.972;2022-12-18T13:31:59;32.80;26.00;20.00
35654;PMS1003;21773;50.010;19.972;2022-12-18T13:38:42;29.60;26.80;20.40
35654;PMS1003;21773;50.010;19.972;2022-12-18T13:41:48;30.00;26.00;20.50
35654;PMS1003;21773;50.010;19.972;2022-12-18T13:44:53;31.40;24.80;19.20
35654;PMS1003;21773;50.010;19.972;2022-12-18T13:47:57;33.00;28.00;23.00
35654;PMS1003;21773;50.010;19.972;2022-12-18T13:51:02;29.80;26.80;21.20
35654;PMS1003;21773;50.010;19.972;2022-12-18T13:54:13;31.50;27.25;21.50
35654;PMS1003;21773;50.010;19.972;2022-12-18T13:57:26;28.80;25.40;19.60
35654;PMS1003;21773;50.010;19.972;2022-12-18T14:00:32;33.00;30.00;23.00
35654;PMS1003;21773;50.010;19.972;2022-12-18T14:03:36;30.60;28.00;21.60
35654;PMS1003;21773;50.010;19.972;2022-12-18T14:06:39;30.33;27.33;22.00
35654;PMS1003;21773;50.010;19.972;2022-12-18T14:09:45;32.40;26.00;21.60
35654;PMS1003;21773;50.010;19.972;2022-12-18T14:12:57;38.00;32.40;24.20
35654;PMS1003;21773;50.010;19.972;2022-12-18T14:16:11;36.60;31.60;23.60
35654;PMS1003;21773;50.010;19.972;2022-12-18T14:19:18;42.00;35.00;26.00
35654;PMS1003;21773;50.010;19.972;2022-12-18T14:22:22;41.40;32.40;24.00
35654;PMS1003;21773;50.010;19.972;2022-12-18T14:25:31;43.40;35.60;27.00
35654;PMS1003;21773;50.010;19.972;2022-12-18T14:28:42;46.00;36.00;28.00
35654;PMS1003;21773;50.010;19.972;2022-12-18T14:31:46;45.00;37.00;27.40
35654;PMS1003;21773;50.010;19.972;2022-12-18T14:35:12;44.00;36.00;27.40
35654;PMS1003;21773;50.010;19.972;2022-12-18T14:38:23;47.50;36.25;27.25
35654;PMS1003;21773;50.010;19.972;2022-12-18T14:41:29;47.20;36.00;28.00
35654;PMS1003;21773;50.010;19.972;2022-12-18T14:44:36;48.20;38.60;29.60
35654;PMS1003;21773;50.010;19.972;2022-12-18T14:47:59;49.00;39.00;28.60
35654;PMS1003;21773;50.010;19.972;2022-12-18T14:51:04;50.40;39.80;29.60
35654;PMS1003;21773;50.010;19.972;2022-12-18T14:54:14;49.00;40.00;29.00
35654;PMS1003;21773;50.010;19.972;2022-12-18T14:57:21;49.50;39.25;30.25
35654;PMS1003;21773;50.010;19.972;2022-12-18T15:00:27;48.00;38.67;29.00
35654;PMS1003;21773;50.010;19.972;2022-12-18T15:03:31;49.00;39.60;30.00
35654;PMS1003;21773;50.010;19.972;2022-12-18T15:06:35;53.50;42.00;31.00
35654;PMS1003;21773;50.010;19.972;2022-12-18T15:09:42;49.60;37.80;28.00
35654;PMS1003;21773;50.010;19.972;2022-12-18T15:12:47;49.20;39.00;29.80
35654;PMS1003;21773;50.010;19.972;2022-12-18T15:15:53;47.25;38.00;28.00
35654;PMS1003;21773;50.010;19.972;2022-12-18T15:18:59;49.20;39.20;29.00
35654;PMS1003;21773;50.010;19.972;2022-12-18T15:22:03;49.00;41.00;30.00
35654;PMS1003;21773;50.010;19.972;2022-12-18T15:25:20;48.75;38.25;28.25
35654;PMS1003;21773;50.010;19.972;2022-12-18T15:28:33;51.00;40.60;29.60
35654;PMS1003;21773;50.010;19.972;2022-12-18T15:31:42;51.00;41.00;31.00
35654;PMS1003;21773;50.010;19.972;2022-12-18T15:34:47;47.67;39.33;30.00
35654;PMS1003;21773;50.010;19.972;2022-12-18T15:37:50;51.50;42.00;31.00
35654;PMS1003;21773;50.010;19.972;2022-12-18T15:40:54;55.00;44.00;32.00
35654;PMS1003;21773;50.010;19.972;2022-12-18T15:43:58;57.00;44.00;33.00
35654;PMS1003;21773;50.010;19.972;2022-12-18T15:47:04;54.00;43.40;33.40
35654;PMS1003;21773;50.010;19.972;2022-12-18T15:50:13;61.40;48.00;35.00
35654;PMS1003;21773;50.010;19.972;2022-12-18T15:53:16;56.75;45.00;33.00
35654;PMS1003;21773;50.010;19.972;2022-12-18T15:56:21;58.00;45.50;34.00
35654;PMS1003;21773;50.010;19.972;2022-12-18T15:59:43;60.20;46.80;34.40
35654;PMS1003;21773;50.010;19.972;2022-12-18T16:02:48;55.00;44.00;33.00
35654;PMS1003;21773;50.010;19.972;2022-12-18T16:05:51;58.00;45.00;34.00
35654;PMS1003;21773;50.010;19.972;2022-12-18T16:08:54;60.00;46.80;35.00
35654;PMS1003;21773;50.010;19.972;2022-12-18T16:11:58;58.60;46.00;35.00
35654;PMS1003;21773;50.010;19.972;2022-12-18T16:15:01;58.20;45.40;34.00
35654;PMS1003;21773;50.010;19.972;2022-12-18T16:18:07;59.80;46.80;35.00
35654;PMS1003;21773;50.010;19.972;2022-12-18T16:21:11;61.20;48.20;38.20
35654;PMS1003;21773;50.010;19.972;2022-12-18T16:24:14;61.60;48.00;37.00
35654;PMS1003;21773;50.010;19.972;2022-12-18T16:27:20;62.40;47.80;35.40
35654;PMS1003;21773;50.010;19.972;2022-12-18T16:30:24;62.00;49.00;39.00
35654;PMS1003;21773;50.010;19.972;2022-12-18T16:33:40;58.80;47.80;36.40
35654;PMS1003;21773;50.010;19.972;2022-12-18T16:36:44;65.00;50.80;39.40
35654;PMS1003;21773;50.010;19.972;2022-12-18T16:39:48;64.20;49.20;38.00
35654;PMS1003;21773;50.010;19.972;2022-12-18T16:42:51;65.00;49.00;38.50
35654;PMS1003;21773;50.010;19.972;2022-12-18T16:45:54;62.00;48.00;35.00
35654;PMS1003;21773;50.010;19.972;2022-12-18T16:49:01;64.60;50.40;39.60
35654;PMS1003;21773;50.010;19.972;2022-12-18T16:52:05;62.60;49.80;39.00
35654;PMS1003;21773;50.010;19.972;2022-12-18T16:55:09;67.20;52.00;41.80
35654;PMS1003;21773;50.010;19.972;2022-12-18T16:58:12;68.00;52.00;43.00
35654;PMS1003;21773;50.010;19.972;2022-12-18T17:01:16;61.60;48.00;35.00
35654;PMS1003;21773;50.010;19.972;2022-12-18T17:04:20;67.00;51.40;41.00
35654;PMS1003;21773;50.010;19.972;2022-12-18T17:07:24;66.60;51.80;43.20
35654;PMS1003;21773;50.010;19.972;2022-12-18T17:10:28;65.00;50.80;40.00
35654;PMS1003;21773;50.010;19.972;2022-12-18T17:13:32;68.75;53.00;46.00
35654;PMS1003;21773;50.010;19.972;2022-12-18T17:16:35;65.60;50.00;40.00
35654;PMS1003;21773;50.010;19.972;2022-12-18T17:19:42;62.75;49.75;38.00